Time;durP1;ratioP1;P1;durP2;ratioP2;P2;SDS_P1;SDS_P2;PMS_P1;PMS_P2;Temp;Humidity;BMP_temperature;BMP_pressure;BME280_temperature;BME280_humidity;BME280_pressure;Samples;Min_cycle;Max_cycle;Signal;HPM_P1;HPM_P2
2023/09/22 00:00:48;;;;;;;0.40;0.10;;;;;;;18.18;100.00;99898.47;4985431;28;20088;-64
2023/09/22 00:03:14;;;;;;;0.63;0.20;;;;;;;18.15;100.00;99904.97;4984558;28;20033;-64
2023/09/22 00:05:39;;;;;;;0.52;0.30;;;;;;;18.19;100.00;99897.44;4977165;28;20027;-64
2023/09/22 00:08:06;;;;;;;0.60;0.20;;;;;;;18.14;100.00;99895.44;4986474;28;20436;-64
2023/09/22 00:10:32;;;;;;;0.50;0.10;;;;;;;18.03;100.00;99901.31;4976800;28;20042;-64
2023/09/22 00:12:58;;;;;;;1.48;0.20;;;;;;;18.01;100.00;99892.81;4983477;28;20023;-64
2023/09/22 00:15:23;;;;;;;3.03;0.10;;;;;;;18.04;100.00;99883.69;4985975;28;20034;-64
2023/09/22 00:17:49;;;;;;;1.10;0.28;;;;;;;18.04;100.00;99892.41;4985893;28;20081;-64
2023/09/22 00:20:15;;;;;;;0.68;0.20;;;;;;;18.08;100.00;99883.06;4987091;28;20499;-64
2023/09/22 00:22:44;;;;;;;1.75;0.20;;;;;;;18.12;100.00;99879.00;4985717;28;20050;-64
2023/09/22 00:25:10;;;;;;;0.57;0.17;;;;;;;18.14;100.00;99882.25;4987690;28;20060;-64
2023/09/22 00:27:36;;;;;;;1.17;0.20;;;;;;;18.07;100.00;99868.28;4988006;28;20034;-64
2023/09/22 00:30:03;;;;;;;0.82;0.20;;;;;;;18.04;100.00;99873.16;4988658;28;20054;-64
2023/09/22 00:32:28;;;;;;;2.05;0.20;;;;;;;18.03;100.00;99874.16;4987270;28;20054;-64
2023/09/22 00:34:54;;;;;;;0.60;0.47;;;;;;;18.00;100.00;99875.38;4986932;28;20053;-64
2023/09/22 00:37:20;;;;;;;0.70;0.20;;;;;;;17.98;100.00;99869.50;4979403;28;20030;-64
2023/09/22 00:39:46;;;;;;;0.70;0.20;;;;;;;17.98;100.00;99872.16;4986504;28;20042;-65
2023/09/22 00:42:11;;;;;;;0.40;0.20;;;;;;;17.99;100.00;99863.22;4988918;28;20484;-64
2023/09/22 00:44:37;;;;;;;0.40;0.20;;;;;;;17.96;100.00;99860.22;4990137;28;20084;-64
2023/09/22 00:47:05;;;;;;;1.00;0.30;;;;;;;17.99;100.00;99852.69;4992955;28;20137;-64
2023/09/22 00:49:31;;;;;;;0.73;0.30;;;;;;;17.95;100.00;99866.50;4989637;28;20077;-64
2023/09/22 00:51:58;;;;;;;1.27;0.30;;;;;;;18.01;100.00;99871.72;4991229;28;20061;-64
2023/09/22 00:54:24;;;;;;;2.88;0.20;;;;;;;18.01;100.00;99853.28;4990225;28;20035;-64
2023/09/22 00:56:50;;;;;;;1.40;0.28;;;;;;;18.01;100.00;99868.28;4991914;28;20065;-64
2023/09/22 00:59:17;;;;;;;0.63;0.28;;;;;;;18.03;100.00;99848.59;4992361;28;20125;-64
2023/09/22 01:01:43;;;;;;;3.00;0.20;;;;;;;18.00;100.00;99843.75;4989786;28;21352;-64
2023/09/22 01:04:09;;;;;;;0.50;0.10;;;;;;;18.01;100.00;99855.91;4987115;28;20450;-64
2023/09/22 01:06:35;;;;;;;0.43;0.20;;;;;;;18.06;100.00;99850.03;4984737;28;20033;-64
2023/09/22 01:09:05;;;;;;;0.40;0.20;;;;;;;18.03;100.00;99845.97;4991515;28;20030;-64
2023/09/22 01:11:33;;;;;;;1.42;0.30;;;;;;;17.98;100.00;99834.44;4988349;28;20022;-64
2023/09/22 01:13:58;;;;;;;1.58;0.40;;;;;;;17.90;100.00;99844.22;4987322;28;20026;-64
2023/09/22 01:16:24;;;;;;;3.80;0.20;;;;;;;17.90;100.00;99846.84;4988775;28;20030;-64
2023/09/22 01:18:49;;;;;;;0.50;0.20;;;;;;;17.90;100.00;99848.69;4988540;28;20034;-64
2023/09/22 01:21:15;;;;;;;1.40;0.20;;;;;;;17.85;100.00;99841.38;4988958;28;20038;-64
2023/09/22 01:23:41;;;;;;;0.80;0.22;;;;;;;17.83;100.00;99846.06;4985064;28;20118;-64
2023/09/22 01:26:07;;;;;;;1.67;0.20;;;;;;;17.80;100.00;99840.38;4988092;28;20568;-64
2023/09/22 01:28:32;;;;;;;1.75;0.15;;;;;;;17.81;100.00;99842.81;4990498;28;20101;-64
2023/09/22 01:30:59;;;;;;;0.47;0.20;;;;;;;17.83;100.00;99832.88;4992084;28;20027;-64
2023/09/22 01:33:24;;;;;;;0.90;0.28;;;;;;;17.84;100.00;99834.50;4989251;28;20046;-64
2023/09/22 01:35:50;;;;;;;0.40;0.20;;;;;;;17.84;100.00;99823.97;4988102;28;20052;-64
2023/09/22 01:38:23;;;;;;;0.50;0.28;;;;;;;17.79;100.00;99810.59;4989932;28;20669;-63
2023/09/22 01:40:49;;;;;;;3.33;0.30;;;;;;;17.77;100.00;99798.63;4988228;28;20030;-63
2023/09/22 01:43:16;;;;;;;2.78;0.32;;;;;;;17.75;100.00;99798.03;4987745;28;20126;-63
2023/09/22 01:45:42;;;;;;;1.00;0.30;;;;;;;17.77;100.00;99803.91;4989498;28;20030;-64
2023/09/22 01:48:08;;;;;;;1.05;0.20;;;;;;;17.78;100.00;99808.16;4990454;28;20446;-63
2023/09/22 01:50:39;;;;;;;1.38;0.20;;;;;;;17.76;100.00;99815.47;4982270;28;20118;-64
2023/09/22 01:53:09;;;;;;;2.13;0.40;;;;;;;17.68;100.00;99810.41;4986170;28;20034;-64
2023/09/22 01:55:36;;;;;;;1.17;0.20;;;;;;;17.70;100.00;99811.00;4986568;28;20045;-64
2023/09/22 01:58:04;;;;;;;1.00;0.30;;;;;;;17.69;100.00;99807.56;4991250;28;20563;-64
2023/09/22 02:00:30;;;;;;;1.27;0.40;;;;;;;17.69;100.00;99817.28;4988788;28;20501;-64
2023/09/22 02:02:55;;;;;;;3.13;0.28;;;;;;;17.70;100.00;99811.00;4985734;28;20419;-64
2023/09/22 02:05:21;;;;;;;0.50;0.20;;;;;;;17.65;100.00;99814.25;4976753;28;20038;-64
2023/09/22 02:07:46;;;;;;;4.30;0.28;;;;;;;17.66;100.00;99820.34;4983341;28;20026;-64
2023/09/22 02:10:15;;;;;;;0.85;0.20;;;;;;;17.66;100.00;99825.59;4986197;28;20054;-64
2023/09/22 02:12:43;;;;;;;0.80;0.40;;;;;;;17.66;100.00;99820.34;4985740;28;20100;-64
2023/09/22 02:15:10;;;;;;;1.60;0.20;;;;;;;17.68;100.00;99813.03;4991239;28;20026;-64
2023/09/22 02:17:43;;;;;;;3.30;0.30;;;;;;;17.67;100.00;99811.44;4989178;28;20283;-63
2023/09/22 02:20:32;;;;;;;2.83;0.30;;;;;;;17.67;100.00;99812.22;4990114;28;20030;-64
2023/09/22 02:22:58;;;;;;;3.50;0.35;;;;;;;17.66;100.00;99812.44;4987371;28;20471;-64
2023/09/22 02:25:24;;;;;;;1.17;0.30;;;;;;;17.64;100.00;99817.88;4986364;28;20405;-64
2023/09/22 02:27:53;;;;;;;1.65;0.30;;;;;;;17.63;100.00;99804.91;4988251;28;20054;-64
2023/09/22 02:30:19;;;;;;;1.15;0.30;;;;;;;17.65;100.00;99809.00;4989637;28;20026;-64
2023/09/22 02:32:50;;;;;;;2.28;0.40;;;;;;;17.64;100.00;99809.97;4990018;28;20451;-64
2023/09/22 02:35:23;;;;;;;1.20;0.30;;;;;;;17.61;100.00;99805.13;4988108;28;20038;-64
2023/09/22 02:37:49;;;;;;;0.47;0.40;;;;;;;17.63;100.00;99808.34;4988297;28;20045;-64
2023/09/22 02:40:17;;;;;;;0.65;0.22;;;;;;;17.65;100.00;99813.41;4988180;28;20026;-64
2023/09/22 02:42:43;;;;;;;1.67;0.45;;;;;;;17.69;100.00;99814.66;4987447;28;20815;-64
2023/09/22 02:45:09;;;;;;;2.92;0.30;;;;;;;17.72;100.00;99812.44;4986835;28;20172;-64
2023/09/22 02:47:41;;;;;;;5.35;0.52;;;;;;;17.71;100.00;99810.81;4983959;28;20108;-64
2023/09/22 02:50:11;;;;;;;1.55;0.20;;;;;;;17.70;100.00;99805.75;4989140;28;20058;-64
2023/09/22 02:52:42;;;;;;;2.85;0.32;;;;;;;17.69;100.00;99790.97;4988637;28;20494;-64
2023/09/22 02:55:09;;;;;;;0.95;0.30;;;;;;;17.71;100.00;99794.19;4988477;28;20022;-65
2023/09/22 02:57:37;;;;;;;1.10;0.30;;;;;;;17.73;100.00;99803.50;4986514;28;20042;-64
2023/09/22 03:00:14;;;;;;;0.60;0.30;;;;;;;17.74;100.00;99799.06;4990396;28;20053;-64
2023/09/22 03:02:40;;;;;;;1.50;0.32;;;;;;;17.77;100.00;99796.81;4983814;28;20081;-64
2023/09/22 03:05:10;;;;;;;0.90;0.32;;;;;;;17.77;100.00;99806.53;4988464;28;20030;-64
2023/09/22 03:07:35;;;;;;;1.88;0.30;;;;;;;17.77;100.00;99806.53;4986905;28;20105;-64
2023/09/22 03:10:01;;;;;;;0.75;0.22;;;;;;;17.71;100.00;99799.47;4988402;28;20110;-64
2023/09/22 03:12:26;;;;;;;1.23;0.30;;;;;;;17.67;100.00;99811.44;4992626;28;20439;-64
2023/09/22 03:14:52;;;;;;;1.27;0.30;;;;;;;17.67;100.00;99812.22;4985651;28;20038;-64
2023/09/22 03:17:18;;;;;;;0.85;0.30;;;;;;;17.69;100.00;99809.41;4979992;28;20050;-64
2023/09/22 03:19:43;;;;;;;5.35;0.40;;;;;;;17.69;100.00;99804.13;4987620;28;20070;-64
2023/09/22 03:22:09;;;;;;;7.10;0.40;;;;;;;17.70;100.00;99803.09;4986568;28;20046;-64
2023/09/22 03:24:35;;;;;;;1.20;0.35;;;;;;;17.75;100.00;99805.94;4985622;28;20058;-64
2023/09/22 03:27:01;;;;;;;1.00;0.32;;;;;;;17.79;100.00;99809.78;4977658;28;20034;-65
2023/09/22 03:29:27;;;;;;;2.65;0.73;;;;;;;17.75;100.00;99805.94;4988919;28;20034;-64
2023/09/22 03:31:52;;;;;;;1.70;0.50;;;;;;;17.77;100.00;99804.72;4987574;28;20563;-64
2023/09/22 03:34:18;;;;;;;1.25;0.47;;;;;;;17.79;100.00;99801.88;4988705;28;20038;-64
2023/09/22 03:36:44;;;;;;;2.45;0.50;;;;;;;17.78;100.00;99797.63;4989735;28;20081;-64
2023/09/22 03:39:12;;;;;;;2.58;0.73;;;;;;;17.77;100.00;99790.72;4988636;28;20388;-64
2023/09/22 03:41:39;;;;;;;1.48;0.50;;;;;;;17.78;100.00;99792.34;4983831;28;20033;-65
2023/09/22 03:44:05;;;;;;;2.05;0.60;;;;;;;17.77;100.00;99796.81;4987379;28;20034;-64
2023/09/22 03:46:30;;;;;;;1.23;0.40;;;;;;;17.76;100.00;99803.09;4986739;28;21124;-65
2023/09/22 03:48:56;;;;;;;4.28;0.43;;;;;;;17.76;100.00;99799.66;4989517;28;20034;-64
2023/09/22 03:51:21;;;;;;;0.77;0.32;;;;;;;17.73;100.00;99797.44;4986700;28;20392;-64
2023/09/22 03:53:47;;;;;;;1.65;0.52;;;;;;;17.69;100.00;99801.50;4987014;28;20034;-64
2023/09/22 03:56:12;;;;;;;0.90;0.50;;;;;;;17.70;100.00;99803.91;4988283;28;20073;-64
2023/09/22 03:58:39;;;;;;;4.50;0.50;;;;;;;17.63;100.00;99805.72;4980024;28;20030;-64
2023/09/22 04:01:09;;;;;;;1.83;0.50;;;;;;;17.59;100.00;99801.88;4985274;28;20042;-64
2023/09/22 04:03:35;;;;;;;1.02;0.30;;;;;;;17.62;100.00;99808.56;4981565;28;20050;-64
2023/09/22 04:06:05;;;;;;;2.15;0.50;;;;;;;17.63;100.00;99810.19;4984407;28;20155;-64
2023/09/22 04:08:30;;;;;;;0.95;0.45;;;;;;;17.62;100.00;99808.56;4987473;28;20425;-64
2023/09/22 04:10:56;;;;;;;1.75;0.50;;;;;;;17.62;100.00;99806.75;4983879;28;20066;-64
2023/09/22 04:13:24;;;;;;;1.90;0.60;;;;;;;17.63;100.00;99813.63;4991283;28;20034;-64
2023/09/22 04:15:58;;;;;;;3.03;0.60;;;;;;;17.61;100.00;99805.13;4993039;28;20092;-64
2023/09/22 04:18:23;;;;;;;1.02;0.75;;;;;;;17.61;100.00;99812.22;4987685;28;20034;-65
2023/09/22 04:20:52;;;;;;;0.85;0.45;;;;;;;17.59;100.00;99809.78;4991946;28;20042;-65
2023/09/22 04:23:17;;;;;;;2.20;0.50;;;;;;;17.59;100.00;99810.59;4987242;28;20343;-64
2023/09/22 04:25:43;;;;;;;3.25;0.52;;;;;;;17.60;100.00;99803.50;4991004;28;20093;-65
2023/09/22 04:28:11;;;;;;;1.70;0.40;;;;;;;17.61;100.00;99806.94;4987782;28;20034;-64
2023/09/22 04:30:37;;;;;;;2.03;0.50;;;;;;;17.63;100.00;99815.44;4985932;28;20058;-65
2023/09/22 04:33:04;;;;;;;1.92;0.73;;;;;;;17.65;100.00;99819.53;4989579;28;20023;-65
2023/09/22 04:35:32;;;;;;;4.13;0.50;;;;;;;17.67;100.00;99816.69;4986224;28;20443;-64
2023/09/22 04:38:01;;;;;;;3.03;0.52;;;;;;;17.63;100.00;99815.44;4986538;28;20125;-65
2023/09/22 04:40:35;;;;;;;5.80;0.73;;;;;;;17.63;100.00;99811.00;4985533;28;20395;-64
2023/09/22 04:43:01;;;;;;;1.42;0.40;;;;;;;17.62;100.00;99812.00;4985640;28;20058;-65
2023/09/22 04:45:26;;;;;;;5.85;0.75;;;;;;;17.60;100.00;99806.13;4991958;28;20471;-65
2023/09/22 04:47:52;;;;;;;2.65;1.13;;;;;;;17.60;100.00;99816.66;4993977;28;20053;-65
2023/09/22 04:50:18;;;;;;;3.65;1.00;;;;;;;17.56;100.00;99805.72;4996342;28;20073;-65
2023/09/22 04:52:45;;;;;;;7.00;1.23;;;;;;;17.52;100.00;99804.53;4988799;28;20033;-65
2023/09/22 04:55:11;;;;;;;3.22;1.08;;;;;;;17.55;100.00;99804.13;4998068;28;20109;-65
2023/09/22 04:57:37;;;;;;;5.43;1.08;;;;;;;17.56;100.00;99805.72;4996404;28;20126;-65
2023/09/22 05:00:13;;;;;;;5.35;1.35;;;;;;;17.56;100.00;99813.63;4995653;28;20030;-65
2023/09/22 05:02:38;;;;;;;6.35;1.48;;;;;;;17.60;100.00;99814.03;4992971;28;20116;-65
2023/09/22 05:05:06;;;;;;;4.95;0.98;;;;;;;17.61;100.00;99813.03;4994006;28;20125;-65
2023/09/22 05:07:32;;;;;;;9.02;1.40;;;;;;;17.61;100.00;99815.66;4995929;28;20026;-65
2023/09/22 05:09:59;;;;;;;6.18;1.50;;;;;;;17.63;100.00;99816.25;4996840;28;20026;-65
2023/09/22 05:12:25;;;;;;;3.83;1.48;;;;;;;17.64;100.00;99822.34;4996572;28;20034;-65
2023/09/22 05:14:50;;;;;;;3.95;1.30;;;;;;;17.68;100.00;99810.41;4996585;28;20034;-65
2023/09/22 05:17:15;;;;;;;3.50;1.13;;;;;;;17.68;100.00;99813.03;4996500;28;20044;-66
2023/09/22 05:19:42;;;;;;;2.35;0.80;;;;;;;17.70;100.00;99805.75;4995589;28;20092;-65
2023/09/22 05:22:08;;;;;;;3.45;0.90;;;;;;;17.71;100.00;99812.63;4993003;28;20428;-65
2023/09/22 05:24:33;;;;;;;3.35;1.05;;;;;;;17.74;100.00;99818.31;4995573;28;20064;-65
2023/09/22 05:26:59;;;;;;;3.33;1.27;;;;;;;17.76;100.00;99813.63;4990952;28;20040;-65
2023/09/22 05:29:24;;;;;;;2.67;0.95;;;;;;;17.79;100.00;99825.59;4994777;28;20125;-65
2023/09/22 05:31:50;;;;;;;4.90;0.63;;;;;;;17.82;100.00;99825.19;4992989;28;20030;-65
2023/09/22 05:34:15;;;;;;;8.18;1.35;;;;;;;17.84;100.00;99825.78;4990572;28;20030;-67
2023/09/22 05:36:42;;;;;;;1.30;1.05;;;;;;;17.86;100.00;99829.03;4988441;28;20475;-66
2023/09/22 05:39:09;;;;;;;4.65;0.57;;;;;;;17.94;100.00;99831.44;4992107;28;20039;-66
2023/09/22 05:41:34;;;;;;;3.10;0.70;;;;;;;17.97;100.00;99824.91;4992734;28;20038;-65
2023/09/22 05:44:00;;;;;;;3.97;0.80;;;;;;;17.96;100.00;99824.09;4992416;28;20503;-65
2023/09/22 05:46:26;;;;;;;2.75;1.10;;;;;;;17.96;100.00;99832.00;4989370;28;20041;-64
2023/09/22 05:48:52;;;;;;;3.85;1.15;;;;;;;17.92;100.00;99825.56;4991184;28;20038;-65
2023/09/22 05:51:19;;;;;;;6.63;0.70;;;;;;;17.94;100.00;99828.81;4991448;28;20451;-64
2023/09/22 05:53:44;;;;;;;3.22;0.88;;;;;;;18.00;100.00;99821.84;4991188;28;20388;-64
2023/09/22 05:56:10;;;;;;;4.55;0.63;;;;;;;18.05;100.00;99830.75;4992068;28;20155;-65
2023/09/22 05:58:38;;;;;;;3.30;1.10;;;;;;;18.15;100.00;99836.41;4987521;28;20289;-65
2023/09/22 06:01:11;;;;;;;1.73;0.68;;;;;;;18.22;100.00;99834.56;4986459;28;20062;-65
2023/09/22 06:03:37;;;;;;;2.10;0.88;;;;;;;18.30;100.00;99837.97;4991358;28;20239;-65
2023/09/22 06:06:11;;;;;;;2.85;0.82;;;;;;;18.36;100.00;99829.22;4984099;28;20109;-65
2023/09/22 06:08:37;;;;;;;2.20;0.40;;;;;;;18.34;100.00;99831.28;4991941;28;20033;-65
2023/09/22 06:11:07;;;;;;;2.63;0.47;;;;;;;18.30;100.00;99837.97;4992344;28;20026;-65
2023/09/22 06:13:34;;;;;;;4.82;0.70;;;;;;;18.24;100.00;99832.53;4991408;28;20034;-64
2023/09/22 06:16:00;;;;;;;2.13;0.52;;;;;;;18.22;100.00;99837.19;4990346;28;20034;-65
2023/09/22 06:18:26;;;;;;;2.13;0.45;;;;;;;18.21;100.00;99840.84;4990857;28;20064;-65
2023/09/22 06:20:56;;;;;;;3.03;0.82;;;;;;;18.26;100.00;99842.06;4991375;28;20077;-63
2023/09/22 06:23:23;;;;;;;2.92;0.65;;;;;;;18.32;100.00;99834.13;4991035;28;20123;-63
2023/09/22 06:25:54;;;;;;;1.20;0.30;;;;;;;18.38;100.00;99835.91;4992712;28;20042;-63
2023/09/22 06:28:20;;;;;;;2.45;0.55;;;;;;;18.44;100.00;99837.69;4992375;28;20037;-63
2023/09/22 06:30:47;;;;;;;1.95;0.82;;;;;;;18.50;100.00;99828.13;4991995;28;20388;-63
2023/09/22 06:33:16;;;;;;;5.15;0.50;;;;;;;18.52;100.00;99836.63;4992608;28;20022;-63
2023/09/22 06:35:43;;;;;;;1.48;0.40;;;;;;;18.50;100.00;99838.69;4990830;28;20026;-63
2023/09/22 06:38:10;;;;;;;3.30;0.63;;;;;;;18.43;100.00;99843.19;4991832;28;20503;-64
2023/09/22 06:40:36;;;;;;;3.08;0.70;;;;;;;18.40;100.00;99830.44;4991008;28;20128;-64
2023/09/22 06:43:04;;;;;;;1.00;0.30;;;;;;;18.41;100.00;99840.78;4991949;28;20037;-63
2023/09/22 06:45:32;;;;;;;2.00;0.57;;;;;;;18.44;100.00;99844.78;4993909;28;20033;-63
2023/09/22 06:47:59;;;;;;;1.98;0.50;;;;;;;18.43;100.00;99833.44;4991775;28;20081;-63
2023/09/22 06:50:25;;;;;;;4.57;0.52;;;;;;;18.48;100.00;99838.06;4991337;28;20360;-63
2023/09/22 06:52:51;;;;;;;1.92;0.60;;;;;;;18.55;100.00;99841.50;4991751;28;20030;-63
2023/09/22 06:55:18;;;;;;;2.38;0.68;;;;;;;18.61;100.00;99843.31;4990177;28;20387;-63
2023/09/22 06:57:44;;;;;;;0.90;0.40;;;;;;;18.65;100.00;99836.59;4989941;28;20034;-64
2023/09/22 07:00:18;;;;;;;2.15;0.70;;;;;;;18.76;100.00;99837.75;4993578;28;20535;-64
2023/09/22 07:02:47;;;;;;;7.03;0.70;;;;;;;18.81;100.00;99833.47;4992468;28;20030;-64
2023/09/22 07:05:13;;;;;;;6.80;0.77;;;;;;;18.91;100.00;99830.31;4992519;28;20061;-64
2023/09/22 07:07:39;;;;;;;1.58;0.60;;;;;;;19.02;100.00;99826.19;4993941;28;20440;-64
2023/09/22 07:10:11;;;;;;;3.70;0.98;;;;;;;19.22;100.00;99821.56;4991302;28;20037;-64
2023/09/22 07:12:38;;;;;;;1.55;0.60;;;;;;;19.38;100.00;99825.47;4984026;28;20038;-64
2023/09/22 07:15:04;;;;;;;5.95;1.05;;;;;;;19.48;100.00;99831.88;4993416;28;20062;-64
2023/09/22 07:17:31;;;;;;;5.15;0.98;;;;;;;19.61;100.00;99830.19;4990865;28;20089;-63
2023/09/22 07:20:09;;;;;;;1.30;0.80;;;;;;;19.72;100.00;99830.28;4986140;28;20060;-64
2023/09/22 07:22:35;;;;;;;2.58;0.80;;;;;;;19.88;100.00;99831.50;4990542;28;20101;-64
2023/09/22 07:25:02;;;;;;;1.65;0.82;;;;;;;20.00;100.00;99824.47;4991332;28;20041;-64
2023/09/22 07:27:27;;;;;;;3.38;0.88;;;;;;;20.11;100.00;99830.84;4990761;28;20546;-64
2023/09/22 07:29:53;;;;;;;2.58;0.65;;;;;;;20.23;100.00;99823.78;4991402;28;20034;-64
2023/09/22 07:32:19;;;;;;;8.68;1.20;;;;;;;20.43;100.00;99831.47;4990806;28;20117;-64
2023/09/22 07:34:45;;;;;;;2.00;0.95;;;;;;;20.59;100.00;99832.69;4992647;28;20034;-64
2023/09/22 07:37:12;;;;;;;6.45;0.80;;;;;;;20.69;100.00;99823.19;4991419;28;20026;-64
2023/09/22 07:39:40;;;;;;;3.47;0.98;;;;;;;20.79;100.00;99836.69;4990537;28;20046;-64
2023/09/22 07:42:06;;;;;;;2.63;0.90;;;;;;;20.92;100.00;99840.97;4986556;28;20030;-64
2023/09/22 07:44:32;;;;;;;5.70;0.98;;;;;;;21.03;100.00;99840.19;4988606;28;20038;-64
2023/09/22 07:47:00;;;;;;;5.50;0.82;;;;;;;21.02;100.00;99851.81;4991174;28;20037;-64
2023/09/22 07:49:26;;;;;;;2.28;0.80;;;;;;;21.11;100.00;99847.78;4989724;28;20030;-64
2023/09/22 07:51:52;;;;;;;7.38;1.05;;;;;;;21.09;100.00;99844.56;4990908;28;20586;-64
2023/09/22 07:54:20;;;;;;;7.78;0.55;;;;;;;21.09;100.00;99846.41;4989903;28;20034;-64
2023/09/22 07:56:46;;;;;;;2.67;0.93;;;;;;;21.14;100.00;99847.34;4987394;28;20037;-64
2023/09/22 07:59:16;;;;;;;7.13;0.70;;;;;;;21.09;100.00;99844.56;4992384;28;20046;-63
2023/09/22 08:01:43;;;;;;;2.70;1.60;;;;;;;21.01;100.00;99844.91;4990885;28;20118;-64
2023/09/22 08:04:12;;;;;;;6.85;1.00;;;;;;;20.92;100.00;99842.78;4991039;28;20476;-64
2023/09/22 08:06:37;;;;;;;1.98;0.73;;;;;;;20.82;100.00;99841.50;4987956;28;26444;-64
2023/09/22 08:09:04;;;;;;;3.80;1.25;;;;;;;20.77;100.00;99838.75;4988115;28;20481;-65
2023/09/22 08:11:33;;;;;;;3.72;0.95;;;;;;;20.89;100.00;99844.06;4990322;28;20082;-65
2023/09/22 08:13:59;;;;;;;5.57;1.23;;;;;;;21.16;100.00;99841.81;4990822;28;20503;-63
2023/09/22 08:16:25;;;;;;;4.68;1.13;;;;;;;21.26;100.00;99843.94;4989886;28;20467;-63
2023/09/22 08:18:53;;;;;;;9.02;1.40;;;;;;;21.17;100.00;99835.50;4990876;28;20113;-63
2023/09/22 08:21:20;;;;;;;4.53;1.52;;;;;;;21.13;100.00;99834.31;4988993;28;20039;-63
2023/09/22 08:23:46;;;;;;;3.47;1.23;;;;;;;21.18;100.00;99840.56;4990728;28;20118;-63
2023/09/22 08:26:17;;;;;;;1.48;1.20;;;;;;;21.16;100.00;99844.47;4990752;28;20117;-63
2023/09/22 08:28:50;;;;;;;3.05;1.10;;;;;;;21.15;100.00;99838.38;4990843;28;20034;-63
2023/09/22 08:31:15;;;;;;;4.30;1.33;;;;;;;21.27;100.00;99846.31;4990542;28;20073;-63
2023/09/22 08:33:41;;;;;;;2.80;1.13;;;;;;;21.35;100.00;99850.47;4989872;28;20407;-63
2023/09/22 08:36:07;;;;;;;4.97;1.23;;;;;;;21.39;100.00;99847.16;4990728;28;20034;-63
2023/09/22 08:38:33;;;;;;;3.83;1.42;;;;;;;21.28;100.00;99855.09;4989468;28;20038;-63
2023/09/22 08:41:00;;;;;;;4.70;1.35;;;;;;;21.16;100.00;99849.75;4989265;28;20034;-63
2023/09/22 08:43:27;;;;;;;2.88;1.13;;;;;;;21.19;100.00;99852.75;4990009;28;20056;-64
2023/09/22 08:45:54;;;;;;;6.75;1.92;;;;;;;21.21;100.00;99863.16;4990420;28;20045;-64
2023/09/22 08:48:19;;;;;;;3.03;0.93;;;;;;;21.18;100.00;99853.81;4990192;28;20141;-65
2023/09/22 08:50:45;;;;;;;3.13;1.25;;;;;;;21.15;100.00;99858.75;4990076;28;20109;-63
2023/09/22 08:53:11;;;;;;;4.10;1.30;;;;;;;20.97;100.00;99861.47;4990586;28;20030;-64
2023/09/22 08:55:38;;;;;;;3.67;1.05;;;;;;;20.93;100.00;99860.28;4989436;28;20045;-64
2023/09/22 08:58:03;;;;;;;3.10;1.02;;;;;;;21.08;100.00;99855.38;4990843;28;20128;-65
2023/09/22 09:00:30;;;;;;;6.25;1.42;;;;;;;21.24;100.00;99857.41;4990935;28;20101;-64
2023/09/22 09:03:00;;;;;;;6.97;0.98;;;;;;;21.37;100.00;99866.97;4994006;28;20027;-64
2023/09/22 09:05:31;;;;;;;2.72;1.38;;;;;;;21.36;100.00;99866.16;4993577;28;20030;-64
2023/09/22 09:08:12;;;;;;;6.28;1.35;;;;;;;21.32;100.00;99872.94;4993824;28;20081;-64
2023/09/22 09:10:38;;;;;;;3.28;0.80;;;;;;;21.27;100.00;99856.16;4993186;28;20524;-64
2023/09/22 09:13:06;;;;;;;5.72;1.50;;;;;;;21.25;100.00;99866.97;4988507;28;20477;-64
2023/09/22 09:15:47;;;;;;;4.07;1.10;;;;;;;21.15;100.00;99859.56;4993317;28;20026;-64
2023/09/22 09:18:19;;;;;;;3.53;1.10;;;;;;;21.29;100.00;99862.81;4993312;28;20166;-64
2023/09/22 09:20:47;;;;;;;5.80;1.10;;;;;;;21.42;100.00;99865.25;4988930;28;20034;-64
2023/09/22 09:23:19;;;;;;;2.28;1.02;;;;;;;21.38;100.00;99869.38;4990338;28;20515;-64
2023/09/22 09:25:55;;;;;;;3.97;1.35;;;;;;;21.35;100.00;99863.72;4987973;28;20034;-64
2023/09/22 09:28:22;;;;;;;1.45;0.80;;;;;;;21.39;100.00;99870.19;4992904;28;20037;-64
2023/09/22 09:30:52;;;;;;;8.60;1.30;;;;;;;21.47;100.00;99873.31;4993711;28;20045;-64
2023/09/22 09:33:32;;;;;;;3.42;1.20;;;;;;;21.55;100.00;99869.53;4993131;28;20030;-64
2023/09/22 09:35:58;;;;;;;3.63;1.05;;;;;;;21.50;100.00;99867.56;4993155;28;20113;-63
2023/09/22 09:38:28;;;;;;;5.65;0.90;;;;;;;21.35;100.00;99867.19;4989760;28;20177;-63
2023/09/22 09:40:55;;;;;;;8.07;1.33;;;;;;;21.34;100.00;99864.78;4992498;28;20480;-64
2023/09/22 09:43:21;;;;;;;5.35;1.00;;;;;;;21.33;100.00;99861.31;4990991;28;20031;-64
2023/09/22 09:45:48;;;;;;;4.00;0.95;;;;;;;21.34;100.00;99862.13;4993061;28;20395;-64
2023/09/22 09:48:19;;;;;;;2.72;1.20;;;;;;;21.40;100.00;99872.63;4988361;28;20035;-64
2023/09/22 09:50:58;;;;;;;4.53;1.77;;;;;;;21.50;100.00;99872.03;4992437;28;20113;-63
2023/09/22 09:53:44;;;;;;;5.00;1.20;;;;;;;21.53;100.00;99877.69;4992530;28;20038;-63
2023/09/22 09:56:13;;;;;;;6.57;1.25;;;;;;;21.64;100.00;99876.09;4990767;28;20038;-63
2023/09/22 09:58:39;;;;;;;3.78;0.90;;;;;;;21.68;100.00;99868.47;4998423;28;20844;-64
2023/09/22 10:01:06;;;;;;;2.20;1.00;;;;;;;21.70;100.00;99882.31;4991962;28;20123;-64
2023/09/22 10:03:36;;;;;;;8.05;1.08;;;;;;;21.60;100.00;99866.19;4991447;28;20563;-64
2023/09/22 10:06:04;;;;;;;7.68;1.58;;;;;;;21.47;100.00;99862.72;4992991;28;20034;-63
2023/09/22 10:08:30;;;;;;;3.20;1.02;;;;;;;21.45;100.00;99850.72;5003194;28;20034;-63
2023/09/22 10:11:00;;;;;;;3.22;1.10;;;;;;;21.47;100.00;99844.16;4992586;28;20385;-64
2023/09/22 10:13:27;;;;;;;6.28;1.00;;;;;;;21.57;100.00;99840.13;4990283;28;20030;-63
2023/09/22 10:15:53;;;;;;;4.75;1.30;;;;;;;21.74;100.00;99831.22;4991802;28;20403;-64
2023/09/22 10:18:20;;;;;;;4.13;0.70;;;;;;;21.90;100.00;99828.91;4991877;28;20027;-63
2023/09/22 10:20:48;;;;;;;3.13;0.63;;;;;;;21.90;100.00;99828.91;4992469;28;20026;-63
2023/09/22 10:23:23;;;;;;;7.65;1.00;;;;;;;21.73;100.00;99823.53;4992467;28;20053;-63
2023/09/22 10:26:15;;;;;;;5.72;1.08;;;;;;;21.55;100.00;99807.75;4990436;28;20165;-63
2023/09/22 10:28:40;;;;;;;6.28;0.80;;;;;;;21.49;100.00;99804.97;4995144;28;20412;-63
2023/09/22 10:31:06;;;;;;;1.15;0.50;;;;;;;21.45;100.00;99803.84;4991135;28;20038;-63
2023/09/22 10:33:32;;;;;;;2.97;1.02;;;;;;;21.47;100.00;99812.34;4992037;28;20030;-63
2023/09/22 10:36:01;;;;;;;4.22;0.85;;;;;;;21.64;100.00;99809.81;4991919;28;20030;-63
2023/09/22 10:38:27;;;;;;;3.95;0.98;;;;;;;21.77;100.00;99804.25;4990760;28;20367;-63
2023/09/22 10:41:02;;;;;;;6.80;0.77;;;;;;;21.72;100.00;99811.31;4991898;28;20042;-64
2023/09/22 10:43:30;;;;;;;5.10;0.77;;;;;;;21.79;100.00;99798.72;4990119;28;20038;-64
2023/09/22 10:45:56;;;;;;;2.25;0.85;;;;;;;21.87;100.00;99798.34;4985589;28;20034;-63
2023/09/22 10:48:22;;;;;;;6.60;0.85;;;;;;;21.90;100.00;99794.44;4979512;28;20019;-63
2023/09/22 10:50:53;;;;;;;1.45;0.70;;;;;;;21.90;100.00;99789.13;4990439;28;20499;-63
2023/09/22 10:53:20;;;;;;;2.25;0.52;;;;;;;21.87;100.00;99790.41;4987657;28;20037;-64
2023/09/22 10:55:46;;;;;;;9.27;1.42;;;;;;;21.91;100.00;99783.59;4991132;28;20256;-64
2023/09/22 10:58:18;;;;;;;3.88;0.90;;;;;;;21.95;100.00;99779.44;4993659;28;20117;-63
2023/09/22 11:00:58;;;;;;;3.33;0.90;;;;;;;21.95;100.00;99778.63;4990024;28;20026;-64
2023/09/22 11:03:24;;;;;;;8.95;1.55;;;;;;;21.96;100.00;99785.53;4991512;28;20121;-63
2023/09/22 11:06:00;;;;;;;2.63;0.63;;;;;;;22.01;100.00;99772.38;4994362;28;20153;-65
2023/09/22 11:08:26;;;;;;;5.40;1.27;;;;;;;22.20;100.00;99770.38;4989795;28;20030;-64
2023/09/22 11:10:56;;;;;;;3.15;0.95;;;;;;;22.13;100.00;99763.38;4992897;28;20118;-64
2023/09/22 11:13:22;;;;;;;4.05;1.08;;;;;;;22.08;100.00;99759.81;4990598;28;20118;-64
2023/09/22 11:15:57;;;;;;;9.25;1.15;;;;;;;22.03;100.00;99770.31;4991016;28;20030;-64
2023/09/22 11:18:31;;;;;;;5.65;1.15;;;;;;;21.93;100.00;99767.44;4988827;28;20031;-64
2023/09/22 11:21:04;;;;;;;2.55;0.60;;;;;;;21.82;100.00;99763.78;4991380;28;20037;-65
2023/09/22 11:23:31;;;;;;;4.95;1.05;;;;;;;21.81;100.00;99762.16;4992130;28;20085;-67
2023/09/22 11:26:07;;;;;;;4.15;0.70;;;;;;;21.86;100.00;99768.38;4991489;28;20081;-65